createdAt,value
2019-04-06T00:00:40.038Z,27.67
2019-04-06T00:03:08.575Z,26.73
2019-04-06T00:05:37.075Z,25.67
2019-04-06T00:08:05.820Z,27.27
2019-04-06T00:10:34.446Z,28.57
2019-04-06T00:13:03.003Z,27.30
2019-04-06T00:15:31.571Z,29.83
2019-04-06T00:18:00.134Z,27.40
2019-04-06T00:20:28.687Z,28.30
2019-04-06T00:22:57.485Z,28.10
2019-04-06T00:25:26.014Z,28.45
2019-04-06T00:27:54.504Z,27.82
2019-04-06T00:30:23.520Z,27.35
2019-04-06T00:33:08.514Z,28.23
2019-04-06T00:35:37.016Z,28.25
2019-04-06T00:38:05.809Z,26.23
2019-04-06T00:40:34.452Z,25.45
2019-04-06T00:43:02.912Z,25.20
2019-04-06T00:45:31.436Z,25.50
2019-04-06T00:47:59.918Z,26.40
2019-04-06T00:50:28.408Z,25.33
2019-04-06T00:52:56.931Z,26.13
2019-04-06T00:55:25.420Z,25.27
2019-04-06T00:57:53.896Z,27.48
2019-04-06T01:00:22.526Z,27.17
2019-04-06T01:02:51.085Z,25.83
2019-04-06T01:05:19.611Z,24.60
2019-04-06T01:07:48.151Z,23.80
2019-04-06T01:10:16.794Z,25.37
2019-04-06T01:12:45.591Z,25.50
2019-04-06T01:15:14.576Z,26.37
2019-04-06T01:17:43.135Z,28.57
2019-04-06T01:20:11.741Z,28.60
2019-04-06T01:22:40.271Z,30.00
2019-04-06T01:25:09.004Z,29.43
2019-04-06T01:27:37.724Z,28.23
2019-04-06T01:30:07.983Z,29.70
2019-04-06T01:32:36.462Z,31.33
2019-04-06T01:35:05.563Z,32.95
2019-04-06T01:37:34.068Z,34.87
2019-04-06T01:40:03.172Z,35.97
2019-04-06T01:42:31.698Z,36.50
2019-04-06T01:45:00.155Z,38.28
2019-04-06T01:47:28.648Z,37.23
2019-04-06T01:49:57.183Z,34.60
2019-04-06T01:52:25.675Z,34.83
2019-04-06T01:54:54.164Z,33.45
2019-04-06T01:57:22.630Z,32.88
2019-04-06T01:59:51.433Z,31.10
2019-04-06T02:02:24.315Z,32.10
2019-04-06T02:04:53.019Z,30.97
2019-04-06T02:07:21.543Z,31.27
2019-04-06T02:09:50.107Z,32.35
2019-04-06T02:12:18.608Z,35.63
2019-04-06T02:14:47.407Z,37.00
2019-04-06T02:17:15.928Z,37.30
2019-04-06T02:19:44.454Z,37.77
2019-04-06T02:22:13.238Z,37.63
2019-04-06T02:24:41.797Z,39.55
2019-04-06T02:27:11.260Z,38.50
2019-04-06T02:29:39.789Z,38.30
2019-04-06T02:32:12.499Z,37.23
2019-04-06T02:34:51.603Z,38.20
2019-04-06T02:37:30.750Z,37.10
2019-04-06T02:40:09.592Z,36.60
2019-04-06T02:42:39.792Z,37.50
2019-04-06T02:45:08.490Z,36.37
2019-04-06T02:47:37.073Z,36.70
2019-04-06T02:50:09.353Z,35.28
2019-04-06T02:52:37.808Z,34.73
2019-04-06T02:55:06.402Z,35.38
2019-04-06T02:57:34.902Z,34.00
2019-04-06T03:00:04.771Z,34.73
2019-04-06T03:02:33.391Z,35.20
2019-04-06T03:05:01.962Z,35.80
2019-04-06T03:07:30.572Z,35.27
2019-04-06T03:09:59.369Z,36.33
2019-04-06T03:12:28.206Z,37.25
2019-04-06T03:14:56.798Z,37.42
2019-04-06T03:17:25.305Z,39.50
2019-04-06T03:19:54.061Z,38.40
2019-04-06T03:22:22.523Z,38.23
2019-04-06T03:24:51.063Z,39.20
2019-04-06T03:27:19.669Z,39.67
2019-04-06T03:29:57.817Z,39.70
2019-04-06T03:32:18.738Z,38.10
2019-04-06T03:34:47.269Z,38.90
2019-04-06T03:37:15.768Z,40.90
2019-04-06T03:39:44.256Z,39.40
2019-04-06T03:42:12.841Z,39.97
2019-04-06T03:44:41.339Z,39.95
2019-04-06T03:47:10.040Z,39.90
2019-04-06T03:49:38.571Z,39.13
2019-04-06T03:52:07.193Z,38.90
2019-04-06T03:54:35.892Z,40.33
2019-04-06T03:57:15.038Z,42.00
2019-04-06T03:59:34.725Z,40.33
2019-04-06T04:02:03.246Z,41.40
2019-04-06T04:04:31.741Z,39.67
2019-04-06T04:07:00.275Z,41.95
2019-04-06T04:09:28.753Z,38.90
2019-04-06T04:11:57.365Z,39.50
2019-04-06T04:14:25.943Z,41.37
2019-04-06T04:16:54.621Z,41.07
2019-04-06T04:19:23.130Z,41.93
2019-04-06T04:21:51.635Z,41.33
2019-04-06T04:24:20.097Z,41.00
2019-04-06T04:26:48.934Z,41.20
2019-04-06T04:29:17.390Z,42.33
2019-04-06T04:31:45.878Z,44.73
2019-04-06T04:34:14.415Z,43.70
2019-04-06T04:36:42.877Z,44.03
2019-04-06T04:39:11.414Z,43.00
2019-04-06T04:41:40.401Z,43.73
2019-04-06T04:44:09.203Z,43.80
2019-04-06T04:46:37.662Z,45.50
2019-04-06T04:49:06.297Z,47.80
2019-04-06T04:51:34.756Z,45.90
2019-04-06T04:54:03.260Z,46.30
2019-04-06T04:56:31.999Z,49.65
2019-04-06T04:59:00.490Z,44.18
2019-04-06T05:01:29.030Z,43.85
2019-04-06T05:03:57.588Z,44.85
2019-04-06T05:06:26.125Z,43.85
2019-04-06T05:08:54.941Z,45.70
2019-04-06T05:11:23.487Z,48.00
2019-04-06T05:13:55.027Z,47.73
2019-04-06T05:16:23.487Z,44.58
2019-04-06T05:18:51.968Z,43.07
2019-04-06T05:21:20.499Z,45.12
2019-04-06T05:23:48.969Z,44.75
2019-04-06T05:26:17.467Z,43.42
2019-04-06T05:28:45.930Z,48.17
2019-04-06T05:31:14.466Z,51.80
2019-04-06T05:33:42.958Z,52.67
2019-04-06T05:36:11.852Z,47.90
2019-04-06T05:38:40.327Z,47.40
2019-04-06T05:41:08.952Z,51.00
2019-04-06T05:43:37.416Z,50.70
2019-04-06T05:46:05.917Z,47.33
2019-04-06T05:48:36.856Z,45.20
2019-04-06T05:51:05.084Z,46.03
2019-04-06T05:53:33.605Z,47.90
2019-04-06T05:56:02.092Z,46.98
2019-04-06T05:58:30.547Z,44.90
2019-04-06T06:00:59.366Z,43.67
2019-04-06T06:03:27.913Z,44.30
2019-04-06T06:05:56.367Z,43.67
2019-04-06T06:08:24.839Z,41.60
2019-04-06T06:10:53.606Z,43.40
2019-04-06T06:13:22.137Z,41.23
2019-04-06T06:15:50.617Z,41.02
2019-04-06T06:18:26.357Z,41.85
2019-04-06T06:20:49.340Z,39.23
2019-04-06T06:23:17.918Z,40.43
2019-04-06T06:25:46.531Z,35.80
2019-04-06T06:28:15.626Z,36.28
2019-04-06T06:30:44.168Z,34.83
2019-04-06T06:33:12.711Z,32.63
2019-04-06T06:35:41.184Z,32.75
2019-04-06T06:38:09.723Z,33.10
2019-04-06T06:40:38.278Z,31.55
2019-04-06T06:43:06.878Z,31.97
2019-04-06T06:45:35.438Z,29.70
2019-04-06T06:48:04.135Z,30.05
2019-04-06T06:50:34.528Z,32.83
2019-04-06T06:53:03.145Z,42.95
2019-04-06T06:55:31.788Z,35.78
2019-04-06T06:58:00.515Z,30.60
2019-04-06T07:00:29.299Z,30.70
2019-04-06T07:02:57.788Z,29.65
2019-04-06T07:05:26.314Z,29.98
2019-04-06T07:07:54.775Z,28.90
2019-04-06T07:10:23.263Z,30.90
2019-04-06T07:12:51.872Z,29.23
2019-04-06T07:15:20.410Z,29.18
2019-04-06T07:17:48.991Z,29.15
2019-04-06T07:20:17.790Z,28.83
2019-04-06T07:22:46.243Z,28.40
2019-04-06T07:25:15.063Z,27.37
2019-04-06T07:27:43.548Z,28.80
2019-04-06T07:30:12.552Z,29.42
2019-04-06T07:32:41.052Z,29.05
2019-04-06T07:35:10.809Z,28.30
2019-04-06T07:37:39.349Z,28.77
2019-04-06T07:40:08.889Z,28.12
2019-04-06T07:42:37.405Z,27.48
2019-04-06T07:45:07.291Z,28.23
2019-04-06T07:47:36.030Z,29.00
2019-04-06T07:50:07.373Z,27.60
2019-04-06T07:52:36.440Z,26.97
2019-04-06T07:55:08.554Z,28.50
2019-04-06T07:57:37.099Z,27.85
2019-04-06T08:00:07.277Z,28.73
2019-04-06T08:02:35.962Z,28.55
2019-04-06T08:05:06.431Z,28.87
2019-04-06T08:07:35.030Z,27.98
2019-04-06T08:10:04.263Z,27.67
2019-04-06T08:12:32.832Z,27.93
2019-04-06T08:15:01.320Z,27.67
2019-04-06T08:17:30.235Z,28.67
2019-04-06T08:19:58.764Z,27.07
2019-04-06T08:22:27.218Z,27.62
2019-04-06T08:24:55.754Z,27.60
2019-04-06T08:27:24.401Z,27.55
2019-04-06T08:29:53.328Z,28.47
2019-04-06T08:32:21.883Z,27.32
2019-04-06T08:34:50.352Z,29.87
2019-04-06T08:37:18.863Z,27.80
2019-04-06T08:39:47.409Z,27.90
2019-04-06T08:42:16.349Z,26.80
2019-04-06T08:44:44.891Z,27.90
2019-04-06T08:47:13.467Z,29.07
2019-04-06T08:49:41.991Z,27.35
2019-04-06T08:52:11.749Z,27.67
2019-04-06T08:54:40.558Z,27.42
2019-04-06T08:57:09.412Z,28.17
2019-04-06T08:59:37.995Z,34.10
2019-04-06T09:02:06.609Z,27.07
2019-04-06T09:04:35.216Z,29.25
2019-04-06T09:07:03.703Z,28.07
2019-04-06T09:09:32.329Z,29.37
2019-04-06T09:12:00.794Z,28.75
2019-04-06T09:14:29.510Z,30.70
2019-04-06T09:16:58.075Z,27.20
2019-04-06T09:19:26.545Z,27.22
2019-04-06T09:21:55.011Z,28.70
2019-04-06T09:24:23.579Z,29.37
2019-04-06T09:26:52.042Z,26.75
2019-04-06T09:29:23.639Z,29.15
2019-04-06T09:31:50.735Z,28.97
2019-04-06T09:34:19.270Z,28.32
2019-04-06T09:36:47.739Z,26.90
2019-04-06T09:39:16.239Z,26.73
2019-04-06T09:41:44.926Z,28.35
2019-04-06T09:44:21.192Z,28.62
2019-04-06T09:47:00.011Z,26.85
2019-04-06T09:49:39.112Z,27.37
2019-04-06T09:52:26.863Z,28.27
2019-04-06T09:55:02.970Z,27.02
2019-04-06T09:57:36.207Z,27.77
2019-04-06T10:00:10.852Z,27.85
2019-04-06T10:02:50.114Z,27.10
2019-04-06T10:05:29.762Z,26.60
2019-04-06T10:08:14.750Z,27.70
2019-04-06T10:11:00.765Z,26.93
2019-04-06T10:13:31.139Z,26.93
2019-04-06T10:16:01.375Z,32.23
2019-04-06T10:18:31.524Z,28.83
2019-04-06T10:21:10.475Z,28.30
2019-04-06T10:23:43.273Z,27.80
2019-04-06T10:26:19.340Z,27.00
2019-04-06T10:28:49.787Z,26.30
2019-04-06T10:31:20.164Z,26.05
2019-04-06T10:34:02.052Z,26.10
2019-04-06T10:36:32.520Z,27.20
2019-04-06T10:39:02.614Z,27.40
2019-04-06T10:41:38.631Z,27.10
2019-04-06T10:44:17.700Z,25.23
2019-04-06T10:46:47.847Z,25.55
2019-04-06T10:49:26.549Z,24.50
2019-04-06T10:51:56.760Z,25.10
2019-04-06T10:54:35.539Z,26.07
2019-04-06T10:57:05.802Z,23.70
2019-04-06T11:00:01.082Z,24.55
2019-04-06T11:02:40.202Z,23.32
2019-04-06T11:05:13.537Z,25.27
2019-04-06T11:07:59.714Z,23.40
2019-04-06T11:10:32.578Z,23.40
2019-04-06T11:13:12.367Z,21.15
2019-04-06T11:15:48.599Z,21.77
2019-04-06T11:18:35.091Z,20.70
2019-04-06T11:21:20.396Z,20.80
2019-04-06T11:23:53.007Z,21.75
2019-04-06T11:26:38.887Z,20.50
2019-04-06T11:29:14.676Z,21.10
2019-04-06T11:31:44.857Z,22.10
2019-04-06T11:34:31.195Z,23.55
2019-04-06T11:37:17.701Z,22.10
2019-04-06T11:39:51.013Z,21.95
2019-04-06T11:42:37.208Z,23.32
2019-04-06T11:45:14.815Z,22.50
2019-04-06T11:48:00.974Z,21.70
2019-04-06T11:50:31.162Z,22.50
2019-04-06T11:53:04.232Z,20.27
2019-04-06T11:55:40.447Z,19.27
2019-04-06T11:58:27.070Z,17.02
2019-04-06T12:00:57.308Z,18.00
2019-04-06T12:03:27.482Z,17.95
2019-04-06T12:06:03.422Z,17.52
2019-04-06T12:08:39.359Z,16.52
2019-04-06T12:11:09.735Z,16.93
2019-04-06T12:13:40.153Z,16.27
2019-04-06T12:16:26.669Z,16.48
2019-04-06T12:19:15.166Z,15.35
2019-04-06T12:21:48.455Z,14.65
2019-04-06T12:24:34.741Z,14.93
2019-04-06T12:27:14.168Z,14.50
2019-04-06T12:29:47.086Z,14.77
2019-04-06T12:32:25.784Z,14.60
2019-04-06T12:34:59.257Z,14.93
2019-04-06T12:37:35.410Z,14.23
2019-04-06T12:40:13.047Z,14.83
2019-04-06T12:42:43.342Z,16.40
2019-04-06T12:45:13.848Z,15.63
2019-04-06T12:47:59.996Z,15.50
2019-04-06T12:50:30.597Z,15.00
2019-04-06T12:53:12.624Z,15.63
2019-04-06T12:55:45.509Z,14.70
2019-04-06T12:58:21.780Z,14.70
2019-04-06T13:00:54.662Z,15.40
2019-04-06T13:03:30.811Z,15.03
2019-04-06T13:06:00.993Z,14.93
2019-04-06T13:08:31.530Z,14.53
2019-04-06T13:11:01.673Z,14.95
2019-04-06T13:13:47.044Z,14.28
2019-04-06T13:16:17.225Z,15.60
2019-04-06T13:18:50.649Z,14.78
2019-04-06T13:21:20.898Z,14.90
2019-04-06T13:24:03.078Z,15.50
2019-04-06T13:26:33.841Z,16.35
2019-04-06T13:29:06.990Z,16.75
2019-04-06T13:31:39.883Z,16.70
2019-04-06T13:34:13.028Z,16.30
2019-04-06T13:36:49.436Z,14.80
2019-04-06T13:39:19.565Z,17.15
2019-04-06T13:42:06.071Z,16.85
2019-04-06T13:44:39.270Z,16.00
2019-04-06T13:47:21.263Z,16.32
2019-04-06T13:50:09.424Z,16.12
2019-04-06T13:52:42.325Z,19.75
2019-04-06T13:55:24.240Z,16.50
2019-04-06T13:58:03.152Z,16.17
2019-04-06T14:00:49.406Z,15.60
2019-04-06T14:03:19.573Z,15.55
2019-04-06T14:05:49.686Z,16.12
2019-04-06T14:08:19.811Z,16.10
2019-04-06T14:10:55.883Z,16.00
2019-04-06T14:13:28.794Z,15.32
2019-04-06T14:15:59.181Z,16.75
2019-04-06T14:18:35.385Z,15.35
2019-04-06T14:21:21.932Z,15.83
2019-04-06T14:23:52.171Z,15.35
2019-04-06T14:26:22.280Z,14.80
2019-04-06T14:28:52.610Z,14.50
2019-04-06T14:31:34.886Z,14.10
2019-04-06T14:34:05.053Z,14.28
2019-04-06T14:36:44.226Z,14.30
2019-04-06T14:39:26.504Z,15.25
2019-04-06T14:42:13.051Z,15.23
2019-04-06T14:44:43.250Z,15.38
2019-04-06T14:47:25.202Z,14.70
2019-04-06T14:50:10.792Z,15.75
2019-04-06T14:52:57.440Z,15.80
2019-04-06T14:55:40.117Z,15.37
2019-04-06T14:58:10.592Z,15.10
2019-04-06T15:00:56.947Z,14.97
2019-04-06T15:03:33.387Z,15.30
2019-04-06T15:06:09.587Z,15.28
2019-04-06T15:08:42.680Z,15.57
2019-04-06T15:11:27.619Z,15.70
2019-04-06T15:14:04.206Z,16.20
2019-04-06T15:16:43.436Z,16.20
2019-04-06T15:19:13.984Z,15.63
2019-04-06T15:21:53.271Z,15.60
2019-04-06T15:24:23.415Z,15.70
2019-04-06T15:27:02.312Z,14.90
2019-04-06T15:29:50.387Z,14.80
2019-04-06T15:32:26.284Z,14.67
2019-04-06T15:34:56.482Z,14.60
2019-04-06T15:37:35.395Z,14.38
2019-04-06T15:40:13.622Z,15.17
2019-04-06T15:43:00.450Z,15.00
2019-04-06T15:45:46.806Z,14.60
2019-04-06T15:48:37.058Z,14.38
2019-04-06T15:51:09.572Z,15.63
2019-04-06T15:53:49.012Z,15.68
2019-04-06T15:56:35.412Z,15.03
2019-04-06T15:59:11.412Z,15.20
2019-04-06T16:02:01.545Z,15.63
2019-04-06T16:04:48.031Z,14.60
2019-04-06T16:07:36.547Z,15.28
2019-04-06T16:10:15.335Z,15.25
2019-04-06T16:12:45.833Z,15.25
2019-04-06T16:15:27.668Z,15.05
2019-04-06T16:17:57.792Z,14.58
2019-04-06T16:20:39.765Z,15.00
2019-04-06T16:23:13.125Z,14.85
2019-04-06T16:25:43.403Z,14.98
2019-04-06T16:28:22.208Z,15.00
2019-04-06T16:30:52.659Z,14.43
2019-04-06T16:33:22.954Z,13.58
2019-04-06T16:35:59.136Z,13.13
2019-04-06T16:38:35.305Z,13.58
2019-04-06T16:41:05.563Z,13.40
2019-04-06T16:43:36.069Z,13.40
2019-04-06T16:46:21.239Z,12.90
2019-04-06T16:49:09.503Z,12.05
2019-04-06T16:51:48.177Z,12.63
2019-04-06T16:54:33.094Z,12.95
2019-04-06T16:57:06.154Z,13.00
2019-04-06T16:59:52.340Z,13.13
2019-04-06T17:02:25.431Z,13.53
2019-04-06T17:04:58.411Z,13.43
2019-04-06T17:07:46.919Z,12.60
2019-04-06T17:10:17.095Z,13.08
2019-04-06T17:12:50.276Z,13.20
2019-04-06T17:15:23.635Z,13.98
2019-04-06T17:18:08.752Z,13.70
2019-04-06T17:20:42.414Z,14.30
2019-04-06T17:23:21.288Z,14.10
2019-04-06T17:25:51.420Z,14.60
2019-04-06T17:28:37.746Z,14.05
2019-04-06T17:31:10.655Z,14.20
2019-04-06T17:33:53.189Z,14.78
2019-04-06T17:36:26.123Z,14.75
2019-04-06T17:39:12.035Z,15.80
2019-04-06T17:41:44.910Z,17.90
2019-04-06T17:44:17.563Z,19.57
2019-04-06T17:46:57.234Z,21.90
2019-04-06T17:49:43.936Z,22.77
2019-04-06T17:52:20.323Z,20.48
2019-04-06T17:55:06.804Z,18.98
2019-04-06T17:57:45.715Z,17.65
2019-04-06T18:00:16.115Z,17.45
2019-04-06T18:02:52.029Z,17.12
2019-04-06T18:05:22.672Z,17.20
2019-04-06T18:07:52.840Z,16.97
2019-04-06T18:10:23.085Z,17.05
2019-04-06T18:12:53.479Z,17.35
2019-04-06T18:15:22.021Z,17.13
2019-04-06T18:17:50.576Z,16.90
2019-04-06T18:20:19.628Z,17.45
2019-04-06T18:22:48.355Z,16.40
2019-04-06T18:25:16.987Z,16.60
2019-04-06T18:27:45.453Z,16.27
2019-04-06T18:30:14.616Z,16.10
2019-04-06T18:32:44.916Z,17.23
2019-04-06T18:35:13.466Z,15.90
2019-04-06T18:37:43.595Z,16.48
2019-04-06T18:40:14.363Z,16.60
2019-04-06T18:42:42.830Z,17.00
2019-04-06T18:45:11.891Z,16.15
2019-04-06T18:47:40.644Z,17.15
2019-04-06T18:50:09.448Z,15.75
2019-04-06T18:52:38.418Z,17.80
2019-04-06T18:55:07.504Z,16.48
2019-04-06T18:57:35.976Z,17.50
2019-04-06T19:00:07.592Z,18.42
2019-04-06T19:02:36.147Z,20.10
2019-04-06T19:05:07.805Z,19.70
2019-04-06T19:07:36.294Z,19.80
2019-04-06T19:10:08.339Z,20.20
2019-04-06T19:12:36.851Z,21.10
2019-04-06T19:15:08.184Z,22.55
2019-04-06T19:17:37.254Z,22.15
2019-04-06T19:20:07.955Z,22.40
2019-04-06T19:22:36.777Z,23.00
2019-04-06T19:25:06.975Z,22.73
2019-04-06T19:27:35.577Z,22.20
2019-04-06T19:30:07.117Z,23.18
2019-04-06T19:32:35.675Z,23.37
2019-04-06T19:35:06.883Z,23.35
2019-04-06T19:37:35.519Z,23.62
2019-04-06T19:40:06.298Z,23.50
2019-04-06T19:42:35.186Z,23.52
2019-04-06T19:45:08.339Z,23.67
2019-04-06T19:47:37.039Z,23.18
2019-04-06T19:50:07.641Z,23.22
2019-04-06T19:52:36.117Z,23.07
2019-04-06T19:55:06.238Z,27.07
2019-04-06T19:57:35.228Z,28.55
2019-04-06T20:00:06.793Z,29.72
2019-04-06T20:02:35.352Z,29.37
2019-04-06T20:05:07.544Z,29.70
2019-04-06T20:07:36.574Z,27.67
2019-04-06T20:10:08.433Z,26.87
2019-04-06T20:12:37.650Z,27.98
2019-04-06T20:15:07.502Z,28.25
2019-04-06T20:17:36.332Z,25.57
2019-04-06T20:20:06.632Z,24.05
2019-04-06T20:22:36.517Z,26.52
2019-04-06T20:25:07.138Z,25.92
2019-04-06T20:27:35.679Z,26.47
2019-04-06T20:30:07.784Z,27.42
2019-04-06T20:32:36.400Z,27.60
2019-04-06T20:35:07.575Z,27.10
2019-04-06T20:37:36.192Z,27.80
2019-04-06T20:40:08.607Z,27.70
2019-04-06T20:42:37.167Z,27.53
2019-04-06T20:45:08.098Z,27.17
2019-04-06T20:47:37.041Z,22.35
2019-04-06T20:50:08.076Z,23.73
2019-04-06T20:52:37.070Z,24.60
2019-04-06T20:55:06.769Z,24.37
2019-04-06T20:57:35.323Z,23.20
2019-04-06T21:00:08.177Z,22.75
2019-04-06T21:02:37.171Z,24.90
2019-04-06T21:05:07.254Z,20.48
2019-04-06T21:07:35.886Z,20.30
2019-04-06T21:10:07.114Z,19.73
2019-04-06T21:12:35.647Z,19.40
2019-04-06T21:15:17.838Z,21.00
2019-04-06T21:17:37.059Z,20.08
2019-04-06T21:20:07.397Z,20.30
2019-04-06T21:22:36.254Z,20.82
2019-04-06T21:25:05.997Z,20.35
2019-04-06T21:27:35.152Z,20.85
2019-04-06T21:30:06.378Z,20.72
2019-04-06T21:32:35.055Z,20.65
2019-04-06T21:35:05.537Z,19.80
2019-04-06T21:37:34.535Z,20.48
2019-04-06T21:40:03.858Z,19.98
2019-04-06T21:42:32.995Z,22.60
2019-04-06T21:45:01.590Z,20.70
2019-04-06T21:47:30.773Z,21.27
2019-04-06T21:49:59.300Z,21.52
2019-04-06T21:52:27.763Z,21.90
2019-04-06T21:54:56.857Z,21.95
2019-04-06T21:57:25.395Z,22.00
2019-04-06T21:59:53.857Z,22.20
2019-04-06T22:02:22.882Z,23.60
2019-04-06T22:04:51.439Z,23.92
2019-04-06T22:07:19.968Z,24.37
2019-04-06T22:09:49.134Z,25.50
2019-04-06T22:12:17.685Z,26.00
2019-04-06T22:14:46.196Z,25.80
2019-04-06T22:17:15.240Z,25.77
2019-04-06T22:19:44.008Z,25.37
2019-04-06T22:22:12.547Z,26.42
2019-04-06T22:24:41.802Z,26.55
2019-04-06T22:27:10.864Z,27.80
2019-04-06T22:29:39.770Z,27.70
2019-04-06T22:32:08.729Z,28.37
2019-04-06T22:34:40.173Z,26.55
2019-04-06T22:37:07.539Z,28.70
2019-04-06T22:39:36.454Z,28.25
2019-04-06T22:42:05.119Z,27.55
2019-04-06T22:44:33.584Z,27.32
2019-04-06T22:47:02.429Z,28.35
2019-04-06T22:49:30.915Z,29.80
2019-04-06T22:51:59.465Z,28.70
2019-04-06T22:54:28.008Z,28.80
2019-04-06T22:56:56.725Z,28.23
2019-04-06T22:59:25.666Z,28.87
2019-04-06T23:01:54.981Z,29.00
2019-04-06T23:04:31.275Z,29.80
2019-04-06T23:07:04.324Z,30.20
2019-04-06T23:09:32.790Z,30.32
2019-04-06T23:12:01.837Z,31.60
2019-04-06T23:14:30.379Z,30.15
2019-04-06T23:16:59.780Z,31.75
2019-04-06T23:19:28.627Z,32.15
2019-04-06T23:21:57.561Z,32.20
2019-04-06T23:24:27.146Z,33.10
2019-04-06T23:26:55.729Z,31.82
2019-04-06T23:29:24.293Z,31.45
2019-04-06T23:31:53.124Z,32.80
2019-04-06T23:34:21.675Z,33.18
2019-04-06T23:36:50.183Z,34.03
2019-04-06T23:39:18.726Z,34.35
2019-04-06T23:41:47.269Z,34.25
2019-04-06T23:44:15.754Z,34.90
2019-04-06T23:46:44.218Z,35.48
2019-04-06T23:49:13.292Z,33.70
2019-04-06T23:51:42.577Z,35.00
2019-04-06T23:54:11.422Z,34.60
2019-04-06T23:56:40.565Z,31.77
2019-04-06T23:59:09.651Z,32.55
